Time;durP1;ratioP1;P1;durP2;ratioP2;P2;SDS_P1;SDS_P2;PMS_P1;PMS_P2;Temp;Humidity;BMP_temperature;BMP_pressure;BME280_temperature;BME280_humidity;BME280_pressure;Samples;Min_cycle;Max_cycle;Signal;HPM_P1;HPM_P2
2022/05/01 00:00:36;;;;;;;29.90;26.75;;;10.40;99.90;;;;;;6003270;23;20197;-74
2022/05/01 00:03:03;;;;;;;29.92;26.92;;;10.40;99.90;;;;;;6000233;23;20188;-74
2022/05/01 00:05:30;;;;;;;30.30;26.70;;;10.40;99.90;;;;;;5988996;23;20399;-74
2022/05/01 00:07:58;;;;;;;29.65;26.65;;;10.30;99.90;;;;;;6013881;23;20357;-74
2022/05/01 00:10:26;;;;;;;29.58;26.67;;;10.20;99.90;;;;;;6010332;23;20567;-74
2022/05/01 00:12:54;;;;;;;29.85;26.77;;;10.20;99.90;;;;;;6023041;23;20202;-74
2022/05/01 00:15:22;;;;;;;29.00;26.13;;;10.20;99.90;;;;;;6002831;23;20260;-74
2022/05/01 00:17:49;;;;;;;29.55;26.58;;;10.20;99.90;;;;;;6002319;23;20218;-74
2022/05/01 00:20:16;;;;;;;30.25;26.95;;;10.10;99.90;;;;;;6005507;23;20279;-74
2022/05/01 00:22:43;;;;;;;31.33;28.13;;;10.20;99.90;;;;;;6010654;23;20195;-74
2022/05/01 00:25:10;;;;;;;29.58;26.55;;;10.20;99.90;;;;;;6003855;23;20677;-74
2022/05/01 00:27:37;;;;;;;29.05;26.05;;;10.10;99.90;;;;;;6004459;23;20254;-74
2022/05/01 00:30:08;;;;;;;29.05;26.05;;;10.10;99.90;;;;;;6003882;23;20213;-74
2022/05/01 00:38:00;;;;;;;30.00;26.95;;;10.00;99.90;;;;;;6006909;23;20224;-74
2022/05/01 00:40:27;;;;;;;30.05;26.95;;;10.00;99.90;;;;;;6010007;23;20187;-74
2022/05/01 00:42:54;;;;;;;29.13;26.25;;;10.00;99.90;;;;;;6033326;23;20356;-74
2022/05/01 00:45:23;;;;;;;29.13;26.13;;;10.00;99.90;;;;;;5993428;23;20223;-74
2022/05/01 00:47:50;;;;;;;29.17;26.08;;;10.00;99.90;;;;;;6004674;23;20200;-74
2022/05/01 00:50:17;;;;;;;31.00;26.10;;;10.00;99.90;;;;;;6003240;23;20197;-74
2022/05/01 00:52:44;;;;;;;29.98;27.00;;;10.10;99.90;;;;;;6005119;23;20193;-74
2022/05/01 00:55:11;;;;;;;29.15;26.15;;;10.10;99.90;;;;;;6004129;23;20213;-74
2022/05/01 00:57:38;;;;;;;29.67;26.45;;;10.10;99.90;;;;;;6004390;23;20692;-74
2022/05/01 01:00:07;;;;;;;29.52;26.48;;;10.20;99.90;;;;;;6003118;23;20301;-74
2022/05/01 01:02:35;;;;;;;29.92;26.75;;;10.30;99.90;;;;;;6005053;23;20493;-74
2022/05/01 01:05:02;;;;;;;28.55;25.55;;;10.40;99.90;;;;;;6003349;23;20213;-74
2022/05/01 01:07:29;;;;;;;29.42;26.45;;;10.40;99.90;;;;;;6004143;23;20221;-74
2022/05/01 01:09:56;;;;;;;30.83;27.63;;;10.40;99.90;;;;;;6012163;23;20270;-74
2022/05/01 01:15:10;;;;;;;28.80;25.90;;;10.40;99.90;;;;;;6009680;23;20285;-74
2022/05/01 01:17:41;;;;;;;31.05;27.85;;;10.50;99.90;;;;;;6012787;23;20251;-74
2022/05/01 01:20:12;;;;;;;30.90;27.63;;;10.40;99.90;;;;;;6013873;23;20196;-74
2022/05/01 01:22:40;;;;;;;28.38;25.30;;;10.50;99.90;;;;;;6018722;23;20193;-74
2022/05/01 01:25:10;;;;;;;29.27;26.30;;;10.40;99.90;;;;;;6009160;23;20298;-74
2022/05/01 01:27:38;;;;;;;30.83;27.00;;;10.50;99.90;;;;;;6011811;23;20741;-74
2022/05/01 01:32:52;;;;;;;28.50;25.70;;;10.40;99.90;;;;;;6003140;23;20270;-75
2022/05/01 01:35:21;;;;;;;62.22;54.15;;;10.30;99.90;;;;;;6017722;23;20242;-74
2022/05/01 01:37:51;;;;;;;29.48;26.33;;;10.30;99.90;;;;;;6003352;23;20247;-74
2022/05/01 01:40:21;;;;;;;29.17;26.25;;;10.30;99.90;;;;;;6015621;23;20223;-74
2022/05/01 01:42:51;;;;;;;31.50;27.58;;;10.30;99.90;;;;;;5984646;23;20276;-74
2022/05/01 01:45:18;;;;;;;29.38;26.33;;;10.30;99.90;;;;;;6004993;23;20207;-74
2022/05/01 01:47:49;;;;;;;33.30;27.10;;;10.30;99.90;;;;;;6002228;23;20669;-74
2022/05/01 01:50:17;;;;;;;29.92;26.83;;;10.40;99.90;;;;;;6005501;23;20231;-74
2022/05/01 01:52:46;;;;;;;31.23;27.95;;;10.40;99.90;;;;;;6004395;23;20199;-74
2022/05/01 01:55:15;;;;;;;30.80;26.98;;;10.40;99.90;;;;;;6004002;23;20218;-74
2022/05/01 01:57:43;;;;;;;28.60;25.58;;;10.40;99.90;;;;;;6002991;23;20243;-74
2022/05/01 02:00:11;;;;;;;31.25;28.15;;;10.40;99.90;;;;;;5993967;23;20236;-74
2022/05/01 02:02:37;;;;;;;30.95;27.63;;;10.40;99.90;;;;;;6003521;23;20225;-74
2022/05/01 02:05:05;;;;;;;31.38;28.05;;;10.40;99.90;;;;;;5997439;23;20206;-74
2022/05/01 02:07:33;;;;;;;30.02;26.08;;;10.40;99.90;;;;;;5992088;23;20186;-74
2022/05/01 02:10:00;;;;;;;31.83;28.00;;;10.40;99.90;;;;;;6014784;23;20676;-74
2022/05/01 02:12:29;;;;;;;32.40;27.02;;;10.40;99.90;;;;;;6005574;23;20194;-74
2022/05/01 02:14:56;;;;;;;29.75;26.58;;;10.30;99.90;;;;;;6021008;23;20212;-74
2022/05/01 02:17:23;;;;;;;29.65;26.52;;;10.20;99.90;;;;;;5997840;23;20562;-74
2022/05/01 02:19:50;;;;;;;32.25;28.67;;;10.20;99.90;;;;;;6003153;23;20359;-74
2022/05/01 02:22:21;;;;;;;29.95;26.65;;;10.20;99.90;;;;;;6004703;23;20521;-74
2022/05/01 02:24:48;;;;;;;29.63;26.42;;;10.20;99.90;;;;;;6018468;23;20216;-74
2022/05/01 02:27:15;;;;;;;30.17;26.98;;;10.10;99.90;;;;;;6003833;23;20288;-74
2022/05/01 02:29:44;;;;;;;28.77;25.80;;;10.10;99.90;;;;;;6008846;23;20644;-74
2022/05/01 02:32:11;;;;;;;28.73;25.48;;;10.10;99.90;;;;;;6001739;23;20255;-74
2022/05/01 02:34:38;;;;;;;29.80;26.67;;;10.20;99.90;;;;;;6013820;23;20250;-74
2022/05/01 02:37:06;;;;;;;30.05;26.83;;;10.20;99.90;;;;;;6003115;23;20869;-74
2022/05/01 02:39:33;;;;;;;30.00;26.83;;;10.20;99.90;;;;;;6003628;23;20193;-75
2022/05/01 02:42:00;;;;;;;30.25;27.25;;;10.20;99.90;;;;;;6003019;23;20201;-75
2022/05/01 02:44:27;;;;;;;30.00;26.90;;;10.20;99.90;;;;;;5994753;23;20223;-74
2022/05/01 02:46:55;;;;;;;32.42;27.90;;;10.20;99.90;;;;;;5977861;23;20182;-74
2022/05/01 02:49:22;;;;;;;28.90;25.52;;;10.10;99.90;;;;;;6018297;23;20286;-74
2022/05/01 02:51:52;;;;;;;29.70;26.55;;;10.10;99.90;;;;;;6006648;23;20211;-74
2022/05/01 02:54:19;;;;;;;30.60;26.52;;;10.10;99.90;;;;;;6004649;23;20614;-74
2022/05/01 02:56:47;;;;;;;34.15;27.92;;;10.10;99.90;;;;;;6004899;23;20305;-74
2022/05/01 02:59:14;;;;;;;32.30;28.92;;;10.10;99.90;;;;;;6002283;23;20248;-74
2022/05/01 03:01:41;;;;;;;31.00;27.63;;;10.10;99.90;;;;;;6004393;23;20274;-75
2022/05/01 03:04:09;;;;;;;32.80;27.77;;;10.10;99.90;;;;;;5998488;23;20211;-74
2022/05/01 03:06:36;;;;;;;31.63;28.27;;;10.10;99.90;;;;;;6004415;23;20235;-74
2022/05/01 03:09:04;;;;;;;30.15;26.73;;;10.10;99.90;;;;;;6024716;23;20230;-74
2022/05/01 03:11:32;;;;;;;30.65;27.52;;;10.10;99.90;;;;;;6021339;23;20192;-74
2022/05/01 03:13:58;;;;;;;32.28;28.83;;;10.10;99.90;;;;;;6003439;23;20286;-74
2022/05/01 03:16:25;;;;;;;31.42;28.27;;;10.10;99.90;;;;;;6003985;23;20280;-74
2022/05/01 03:24:23;;;;;;;33.10;29.35;;;10.00;99.90;;;;;;6021277;23;20216;-74
2022/05/01 03:26:50;;;;;;;32.05;28.58;;;10.00;99.90;;;;;;6004755;23;20202;-74
2022/05/01 03:29:18;;;;;;;32.60;29.20;;;9.90;99.90;;;;;;6022105;23;20230;-74
2022/05/01 03:31:48;;;;;;;32.20;28.90;;;9.90;99.90;;;;;;6010294;23;20202;-74
2022/05/01 03:34:15;;;;;;;32.38;28.98;;;9.90;99.90;;;;;;6003555;23;20725;-74
2022/05/01 03:36:44;;;;;;;33.53;30.00;;;9.90;99.90;;;;;;6003808;23;20207;-74
2022/05/01 03:39:11;;;;;;;32.50;29.20;;;10.00;99.90;;;;;;6019832;23;20223;-74
2022/05/01 03:41:39;;;;;;;30.83;27.75;;;10.00;99.90;;;;;;6011385;23;20194;-74
2022/05/01 03:44:07;;;;;;;32.03;27.70;;;10.10;99.90;;;;;;6002615;23;20295;-74
2022/05/01 03:46:36;;;;;;;31.80;28.60;;;10.10;99.90;;;;;;6003477;23;20255;-74
2022/05/01 03:49:03;;;;;;;32.05;28.65;;;10.20;99.90;;;;;;6004422;23;20199;-74
2022/05/01 03:51:31;;;;;;;33.03;29.58;;;10.20;99.90;;;;;;6002760;23;20201;-74
2022/05/01 03:54:02;;;;;;;33.15;29.70;;;10.20;99.90;;;;;;6001629;23;20691;-74
2022/05/01 03:56:29;;;;;;;31.02;27.83;;;10.20;99.90;;;;;;6003067;23;20196;-74
2022/05/01 03:58:56;;;;;;;33.83;30.08;;;10.20;99.90;;;;;;6003756;23;20387;-74
2022/05/01 04:01:24;;;;;;;31.10;27.85;;;10.20;99.90;;;;;;5996396;23;20585;-74
2022/05/01 04:03:50;;;;;;;32.40;29.30;;;10.10;99.90;;;;;;6021565;23;20292;-74
2022/05/01 04:06:17;;;;;;;31.42;28.15;;;10.10;99.90;;;;;;5994440;23;20266;-74
2022/05/01 04:08:45;;;;;;;32.03;28.73;;;10.10;99.90;;;;;;5999124;23;20273;-74
2022/05/01 04:11:13;;;;;;;32.03;27.17;;;10.10;99.90;;;;;;6004634;23;20218;-74
2022/05/01 04:13:40;;;;;;;32.97;29.15;;;10.10;99.90;;;;;;6013693;23;20387;-74
2022/05/01 04:16:07;;;;;;;31.75;28.13;;;10.10;99.90;;;;;;6004927;23;20200;-74
2022/05/01 04:18:34;;;;;;;33.22;29.73;;;10.10;99.90;;;;;;6013043;23;20242;-74
2022/05/01 04:21:02;;;;;;;33.05;29.33;;;10.10;99.90;;;;;;6032864;23;20192;-74
2022/05/01 04:23:29;;;;;;;32.05;28.80;;;10.10;99.90;;;;;;5984063;23;20931;-74
2022/05/01 04:25:56;;;;;;;34.30;30.60;;;10.10;99.90;;;;;;5998773;23;20202;-75
2022/05/01 04:28:24;;;;;;;31.48;28.02;;;10.10;99.90;;;;;;6001533;23;20206;-75
2022/05/01 04:30:51;;;;;;;32.78;29.27;;;10.00;99.90;;;;;;6001726;23;20246;-74
2022/05/01 04:33:18;;;;;;;39.55;29.90;;;10.10;99.90;;;;;;5999252;23;20237;-75
2022/05/01 04:35:48;;;;;;;31.42;28.05;;;10.10;99.90;;;;;;6000257;23;20217;-75
2022/05/01 04:38:18;;;;;;;29.80;26.80;;;10.10;99.90;;;;;;6011149;23;20230;-75
2022/05/01 04:40:47;;;;;;;32.03;28.52;;;10.10;99.90;;;;;;5994912;23;20217;-75
2022/05/01 04:43:17;;;;;;;31.30;28.02;;;10.10;99.90;;;;;;5983052;23;20189;-74
2022/05/01 04:45:47;;;;;;;33.33;29.67;;;10.20;99.90;;;;;;5986877;23;20205;-74
2022/05/01 04:48:14;;;;;;;31.55;28.17;;;10.20;99.90;;;;;;5995178;23;20209;-73
2022/05/01 04:50:42;;;;;;;30.40;27.33;;;10.20;99.90;;;;;;5999283;23;20184;-74
2022/05/01 04:53:11;;;;;;;31.30;28.05;;;10.10;99.90;;;;;;6000431;23;20234;-78
2022/05/01 04:55:38;;;;;;;33.10;29.30;;;10.10;99.90;;;;;;6001429;23;20550;-75
2022/05/01 04:58:06;;;;;;;31.30;28.10;;;10.10;99.90;;;;;;6003537;23;20216;-75
2022/05/01 05:00:33;;;;;;;30.20;27.08;;;10.20;99.90;;;;;;5993719;23;20252;-75
2022/05/01 05:03:01;;;;;;;32.78;29.30;;;10.20;99.90;;;;;;6017210;23;20230;-75
2022/05/01 05:05:31;;;;;;;32.20;28.90;;;10.30;99.90;;;;;;6012021;23;20205;-75
2022/05/01 05:09:53;;;;;;;31.10;27.90;;;10.30;99.90;;;;;;6029030;23;20554;-75
2022/05/01 05:10:46;;;;;;;34.35;30.65;;;10.40;99.90;;;;;;6031798;23;20676;-76
2022/05/01 05:13:14;;;;;;;31.60;28.40;;;10.50;99.90;;;;;;6005603;23;20200;-75
2022/05/01 05:15:41;;;;;;;32.10;28.23;;;10.60;99.90;;;;;;6005524;23;20226;-75
2022/05/01 05:18:09;;;;;;;32.05;28.75;;;10.60;99.90;;;;;;6005248;23;20297;-75
2022/05/01 05:20:36;;;;;;;29.08;26.17;;;10.70;99.90;;;;;;6024082;23;20183;-76
2022/05/01 05:23:03;;;;;;;31.17;27.77;;;10.70;99.90;;;;;;6030643;23;20681;-76
2022/05/01 05:25:30;;;;;;;30.70;27.60;;;10.80;99.90;;;;;;6012802;23;20196;-76
2022/05/01 05:27:57;;;;;;;30.95;27.48;;;10.80;99.90;;;;;;6004680;23;20267;-75
2022/05/01 05:30:24;;;;;;;28.20;25.30;;;10.90;99.90;;;;;;5995347;23;20210;-76
2022/05/01 05:32:51;;;;;;;29.67;26.27;;;10.90;99.90;;;;;;6001934;23;20192;-76
2022/05/01 05:35:19;;;;;;;29.40;26.40;;;11.00;99.90;;;;;;6004406;23;20293;-76
2022/05/01 05:37:46;;;;;;;29.15;26.05;;;11.00;99.90;;;;;;6004712;23;20296;-75
2022/05/01 05:40:13;;;;;;;29.95;26.95;;;10.90;99.90;;;;;;6003633;23;20201;-75
2022/05/01 05:42:41;;;;;;;28.55;25.50;;;10.90;99.90;;;;;;6003609;23;20273;-75
2022/05/01 05:45:08;;;;;;;26.85;23.90;;;10.90;99.90;;;;;;6004493;23;20272;-76
2022/05/01 05:47:35;;;;;;;27.65;24.95;;;11.00;99.90;;;;;;5989425;23;20194;-75
2022/05/01 05:50:02;;;;;;;29.27;26.30;;;11.10;99.90;;;;;;5993182;23;20348;-76
2022/05/01 05:52:30;;;;;;;27.30;24.80;;;11.20;99.90;;;;;;6003455;23;20217;-76
2022/05/01 05:54:57;;;;;;;26.58;23.95;;;11.30;99.90;;;;;;5997841;23;20322;-76
2022/05/01 05:57:24;;;;;;;28.55;25.67;;;11.40;99.90;;;;;;6004731;23;20187;-76
2022/05/01 05:59:51;;;;;;;28.23;25.42;;;11.50;99.90;;;;;;6003837;23;20300;-76
2022/05/01 06:02:18;;;;;;;26.73;24.13;;;11.60;99.90;;;;;;6004027;23;20190;-76
2022/05/01 06:04:45;;;;;;;26.48;23.60;;;11.60;99.90;;;;;;5997788;23;20209;-76
2022/05/01 06:07:12;;;;;;;28.55;25.55;;;11.60;99.90;;;;;;5996340;23;20265;-76
2022/05/01 06:09:40;;;;;;;27.88;25.08;;;11.60;99.90;;;;;;6001352;23;20193;-76
2022/05/01 06:12:09;;;;;;;26.58;24.08;;;11.70;99.90;;;;;;5996910;23;20221;-75
2022/05/01 06:14:37;;;;;;;26.73;23.98;;;11.70;99.90;;;;;;6004078;23;20224;-76
2022/05/01 06:17:04;;;;;;;26.20;23.58;;;11.80;99.90;;;;;;6003777;23;20230;-76
2022/05/01 06:19:31;;;;;;;27.88;24.83;;;11.80;99.90;;;;;;6003746;23;20272;-77
2022/05/01 06:21:58;;;;;;;25.70;23.10;;;11.70;99.90;;;;;;6004372;23;20193;-76
2022/05/01 06:24:25;;;;;;;26.50;23.75;;;11.70;99.90;;;;;;6002892;23;20233;-76
2022/05/01 06:26:53;;;;;;;25.60;23.10;;;11.80;99.90;;;;;;6003363;23;20276;-76
2022/05/01 06:29:20;;;;;;;26.30;23.80;;;11.80;99.90;;;;;;5993308;23;20224;-76
2022/05/01 06:31:47;;;;;;;23.90;21.60;;;11.90;99.90;;;;;;5995371;23;20201;-78
2022/05/01 06:34:15;;;;;;;28.17;25.15;;;12.10;99.90;;;;;;5995451;23;20218;-74
2022/05/01 06:36:43;;;;;;;26.75;24.05;;;12.30;99.90;;;;;;5996993;23;20205;-75
2022/05/01 06:39:11;;;;;;;25.70;22.75;;;12.60;99.90;;;;;;6002187;23;20226;-74
2022/05/01 06:41:38;;;;;;;26.17;23.58;;;12.80;99.90;;;;;;6001905;23;20188;-76
2022/05/01 06:44:07;;;;;;;24.98;22.38;;;12.90;99.90;;;;;;6000830;23;20690;-75
2022/05/01 06:46:34;;;;;;;24.90;22.15;;;13.10;99.90;;;;;;5998822;23;20668;-75
2022/05/01 06:49:01;;;;;;;24.40;22.00;;;13.20;99.90;;;;;;5992749;23;20257;-75
2022/05/01 06:51:28;;;;;;;25.58;23.02;;;13.30;99.90;;;;;;6003022;23;20197;-75
2022/05/01 06:53:55;;;;;;;24.77;22.35;;;13.50;99.90;;;;;;6001272;23;20288;-75
2022/05/01 06:56:22;;;;;;;25.52;23.00;;;13.60;99.90;;;;;;5998592;23;20197;-75
2022/05/01 06:58:48;;;;;;;24.33;21.83;;;13.70;99.90;;;;;;5996196;23;20697;-75
2022/05/01 07:01:16;;;;;;;25.10;22.52;;;13.80;99.90;;;;;;6002392;23;20929;-75
2022/05/01 07:03:46;;;;;;;23.80;21.52;;;13.60;99.90;;;;;;5992406;23;20210;-75
2022/05/01 07:06:13;;;;;;;24.48;22.08;;;13.50;99.90;;;;;;6000668;23;20273;-75
2022/05/01 07:08:40;;;;;;;24.73;22.23;;;13.20;99.90;;;;;;6000971;23;20577;-75
2022/05/01 07:11:07;;;;;;;22.95;20.80;;;13.00;99.90;;;;;;6001484;23;21001;-76
2022/05/01 07:13:35;;;;;;;23.02;20.67;;;13.00;99.90;;;;;;5996106;23;20212;-75
2022/05/01 07:16:02;;;;;;;21.63;19.60;;;13.10;99.90;;;;;;5995180;23;20186;-75
2022/05/01 07:18:30;;;;;;;22.60;20.50;;;13.00;99.90;;;;;;5994066;23;20976;-76
2022/05/01 07:20:58;;;;;;;22.45;20.10;;;13.20;99.90;;;;;;5997749;23;20182;-74
2022/05/01 07:23:25;;;;;;;22.33;20.23;;;13.30;99.90;;;;;;6014909;23;20232;-75
2022/05/01 07:25:53;;;;;;;21.65;19.73;;;13.40;99.90;;;;;;5992539;23;20190;-75
2022/05/01 07:28:20;;;;;;;21.23;19.33;;;13.50;99.90;;;;;;5998231;23;20186;-75
2022/05/01 07:30:47;;;;;;;22.02;20.13;;;13.60;99.90;;;;;;5995146;23;20646;-75
2022/05/01 07:33:14;;;;;;;20.60;18.80;;;13.60;99.90;;;;;;5994094;23;20676;-74
2022/05/01 07:35:43;;;;;;;22.65;20.45;;;13.70;99.90;;;;;;5999333;23;20178;-79
2022/05/01 07:38:10;;;;;;;23.80;21.65;;;13.90;99.90;;;;;;5989442;23;21521;-76
2022/05/01 07:40:37;;;;;;;21.60;19.45;;;13.90;99.90;;;;;;5986283;23;20304;-76
2022/05/01 07:43:04;;;;;;;22.73;20.42;;;13.90;99.90;;;;;;5997314;23;20225;-75
2022/05/01 07:45:31;;;;;;;20.02;18.13;;;14.00;99.90;;;;;;5994806;23;20201;-75
2022/05/01 07:47:59;;;;;;;21.05;19.02;;;14.00;99.90;;;;;;6001911;23;20764;-76
2022/05/01 07:50:27;;;;;;;23.08;20.92;;;14.00;99.90;;;;;;5995613;23;20249;-74
2022/05/01 07:52:55;;;;;;;22.08;19.60;;;13.70;99.90;;;;;;5999128;23;20265;-74
2022/05/01 07:55:22;;;;;;;21.42;19.23;;;13.60;99.90;;;;;;5997844;23;20193;-74
2022/05/01 07:57:49;;;;;;;21.70;19.65;;;13.60;99.90;;;;;;5993818;23;20186;-75
2022/05/01 08:00:17;;;;;;;22.00;19.90;;;13.50;99.90;;;;;;5987114;23;20217;-75
2022/05/01 08:05:29;;;;;;;23.95;21.60;;;13.70;99.90;;;;;;5994123;23;20190;-75
2022/05/01 08:07:59;;;;;;;22.05;19.95;;;13.70;99.90;;;;;;5998916;23;20273;-76
2022/05/01 08:10:26;;;;;;;21.98;19.77;;;13.70;99.90;;;;;;5998567;23;20190;-76
2022/05/01 08:12:53;;;;;;;20.30;18.23;;;13.50;99.90;;;;;;5996761;23;20635;-76
2022/05/01 08:15:21;;;;;;;21.10;19.30;;;13.60;99.90;;;;;;5998156;23;20237;-75
2022/05/01 08:17:48;;;;;;;20.63;18.73;;;13.60;99.90;;;;;;5997625;23;20198;-76
2022/05/01 08:23:07;;;;;;;20.48;18.58;;;13.80;99.90;;;;;;5991265;23;20206;-75
2022/05/01 08:25:34;;;;;;;20.25;18.20;;;14.00;99.90;;;;;;5997215;23;20633;-75
2022/05/01 08:28:02;;;;;;;19.40;17.60;;;14.30;99.90;;;;;;5994588;23;20187;-75
2022/05/01 08:30:29;;;;;;;19.00;17.40;;;14.70;99.90;;;;;;6000110;23;20538;-75
2022/05/01 08:32:57;;;;;;;19.00;17.30;;;14.80;99.90;;;;;;5999153;23;20444;-78
2022/05/01 08:35:24;;;;;;;19.63;17.73;;;15.20;99.90;;;;;;5995487;23;20681;-76
2022/05/01 08:37:51;;;;;;;18.90;17.30;;;15.30;99.90;;;;;;5993097;23;20447;-76
2022/05/01 08:40:19;;;;;;;19.30;17.53;;;15.20;99.90;;;;;;5996092;23;20530;-76
2022/05/01 08:42:48;;;;;;;19.53;17.83;;;15.10;99.90;;;;;;5995950;23;20434;-76
2022/05/01 08:45:23;;;;;;;19.10;17.30;;;14.90;99.90;;;;;;5989476;23;20533;-76
2022/05/01 08:47:54;;;;;;;18.20;16.40;;;14.80;99.90;;;;;;5990993;23;20429;-76
2022/05/01 08:50:22;;;;;;;18.73;17.10;;;14.90;99.90;;;;;;5984169;23;20445;-75
2022/05/01 08:52:50;;;;;;;19.97;18.20;;;15.00;99.90;;;;;;6001609;23;20741;-76
2022/05/01 08:55:19;;;;;;;19.63;17.90;;;15.20;99.90;;;;;;5999257;23;20472;-75
2022/05/01 08:57:47;;;;;;;17.47;15.97;;;15.40;99.90;;;;;;6001128;23;20451;-75
2022/05/01 09:00:16;;;;;;;16.37;14.97;;;15.50;99.90;;;;;;5993742;23;20525;-75
2022/05/01 09:02:43;;;;;;;17.13;15.73;;;15.80;99.90;;;;;;6001014;23;20534;-75
2022/05/01 09:05:11;;;;;;;15.23;13.83;;;16.40;99.90;;;;;;5998142;23;20452;-75
2022/05/01 09:07:39;;;;;;;17.47;15.87;;;16.90;99.90;;;;;;5998074;23;20955;-76
2022/05/01 09:10:09;;;;;;;15.97;14.67;;;17.30;99.90;;;;;;5994315;23;20467;-75
2022/05/01 09:12:53;;;;;;;16.33;14.87;;;17.60;99.90;;;;;;5997083;23;20457;-76
2022/05/01 09:15:31;;;;;;;16.57;15.03;;;17.70;99.90;;;;;;5995172;23;20444;-76
2022/05/01 09:18:01;;;;;;;17.90;16.33;;;17.20;99.90;;;;;;5991820;23;20913;-75
2022/05/01 09:20:28;;;;;;;17.40;16.00;;;16.70;99.90;;;;;;6001995;23;20472;-74
2022/05/01 09:22:57;;;;;;;15.90;14.60;;;16.60;99.90;;;;;;5998175;23;20474;-74
2022/05/01 09:25:26;;;;;;;15.40;14.10;;;17.10;99.90;;;;;;5998220;23;20500;-74
2022/05/01 09:27:57;;;;;;;14.50;13.27;;;18.00;99.90;;;;;;5992894;23;20453;-75
2022/05/01 09:30:31;;;;;;;14.70;13.30;;;18.50;99.90;;;;;;6003406;23;20445;-75
2022/05/01 09:32:59;;;;;;;15.67;14.27;;;18.50;99.90;;;;;;5993273;23;20528;-74
2022/05/01 09:35:32;;;;;;;15.77;14.43;;;18.60;99.90;;;;;;5998346;23;20998;-74
2022/05/01 09:38:11;;;;;;;15.17;13.87;;;18.30;99.90;;;;;;5998363;23;21640;-74
2022/05/01 09:40:37;;;;;;;16.13;14.80;;;18.30;99.90;;;;;;5998786;23;20469;-74
2022/05/01 09:43:06;;;;;;;14.70;13.50;;;18.10;99.90;;;;;;5989822;23;20536;-74
2022/05/01 09:45:33;;;;;;;16.47;14.90;;;18.20;99.90;;;;;;5999308;23;20460;-74
2022/05/01 09:48:00;;;;;;;14.73;13.43;;;18.20;99.90;;;;;;5999882;23;20445;-73
2022/05/01 09:50:40;;;;;;;15.57;14.17;;;18.50;99.90;;;;;;6002735;23;20532;-73
2022/05/01 09:53:07;;;;;;;15.33;14.03;;;18.40;99.90;;;;;;5999964;23;20487;-74
2022/05/01 09:55:34;;;;;;;14.07;12.90;;;18.60;99.90;;;;;;6003768;23;20527;-72
2022/05/01 09:58:07;;;;;;;14.97;13.70;;;18.60;99.90;;;;;;6002624;23;20441;-74
2022/05/01 10:00:40;;;;;;;14.33;13.13;;;18.90;99.90;;;;;;6010129;23;20551;-73
2022/05/01 10:03:28;;;;;;;16.40;15.00;;;19.10;99.90;;;;;;5998248;23;20490;-73
2022/05/01 10:05:56;;;;;;;14.80;13.60;;;19.40;99.90;;;;;;6001539;23;20520;-74
2022/05/01 10:08:28;;;;;;;14.40;13.20;;;19.60;99.90;;;;;;6000995;23;20535;-82
2022/05/01 10:10:58;;;;;;;14.27;13.17;;;19.80;99.90;;;;;;5989376;23;20806;-74
2022/05/01 10:13:28;;;;;;;13.27;12.23;;;19.80;99.90;;;;;;5985251;23;20458;-74
2022/05/01 10:15:56;;;;;;;12.83;11.83;;;19.90;99.80;;;;;;5992693;23;20606;-74
2022/05/01 10:18:24;;;;;;;11.80;10.80;;;19.90;99.50;;;;;;5991945;23;20444;-73
2022/05/01 10:20:52;;;;;;;10.00;9.10;;;20.10;99.40;;;;;;5992417;23;20544;-73
2022/05/01 10:23:19;;;;;;;11.30;10.40;;;19.80;99.90;;;;;;5998225;23;20515;-72
2022/05/01 10:25:49;;;;;;;13.57;12.37;;;19.60;99.90;;;;;;5999572;23;20453;-73
2022/05/01 10:28:30;;;;;;;11.60;10.70;;;19.40;99.70;;;;;;5996413;23;20539;-73
2022/05/01 10:34:10;;;;;;;11.30;10.40;;;18.90;99.70;;;;;;5996404;23;20485;-74
2022/05/01 10:36:57;;;;;;;11.77;10.77;;;18.80;99.50;;;;;;5990962;23;20872;-74
2022/05/01 10:39:29;;;;;;;13.73;12.53;;;18.80;99.40;;;;;;6001837;23;20974;-74
2022/05/01 10:41:56;;;;;;;12.10;11.10;;;18.50;99.20;;;;;;5997964;23;20445;-73
2022/05/01 10:44:30;;;;;;;11.80;10.80;;;18.40;99.70;;;;;;5994825;23;20499;-73
2022/05/01 10:47:06;;;;;;;11.53;10.53;;;18.30;99.90;;;;;;5995542;23;20851;-73
2022/05/01 10:49:35;;;;;;;11.83;10.83;;;18.10;99.90;;;;;;5997005;23;20535;-74
2022/05/01 10:52:15;;;;;;;9.93;9.10;;;18.10;99.90;;;;;;6002229;23;20451;-72
2022/05/01 10:54:47;;;;;;;12.60;11.60;;;18.10;99.70;;;;;;6003984;23;20547;-73
2022/05/01 10:57:17;;;;;;;12.70;11.70;;;18.00;99.70;;;;;;5997674;23;20536;-72
2022/05/01 10:59:47;;;;;;;13.37;12.23;;;17.80;99.60;;;;;;6002566;23;21107;-72
2022/05/01 11:02:30;;;;;;;12.23;11.23;;;17.70;99.90;;;;;;5997992;23;20449;-73
2022/05/01 11:04:59;;;;;;;10.80;9.90;;;17.50;99.90;;;;;;5996945;23;20457;-73
2022/05/01 11:07:27;;;;;;;11.07;10.17;;;17.50;99.90;;;;;;5996940;23;20543;-73
2022/05/01 11:09:57;;;;;;;10.57;9.57;;;17.80;99.30;;;;;;5998357;23;20557;-76
2022/05/01 11:12:26;;;;;;;9.17;8.33;;;18.40;99.30;;;;;;6000675;23;20452;-72
2022/05/01 11:14:55;;;;;;;10.27;9.40;;;18.90;99.40;;;;;;6004652;23;20460;-73
2022/05/01 11:17:55;;;;;;;10.67;9.77;;;19.30;97.30;;;;;;5993312;23;20446;-80
2022/05/01 11:20:29;;;;;;;11.40;10.50;;;19.80;96.90;;;;;;5989668;23;20465;-79
2022/05/01 11:22:57;;;;;;;11.30;10.20;;;19.50;96.80;;;;;;5997474;23;20989;-78
2022/05/01 11:25:32;;;;;;;10.27;9.03;;;19.30;97.80;;;;;;5978035;23;20450;-79
2022/05/01 11:28:00;;;;;;;9.97;9.17;;;18.90;97.20;;;;;;5990204;23;20449;-78
2022/05/01 11:30:37;;;;;;;11.17;10.13;;;19.10;96.90;;;;;;5999237;23;20441;-78
2022/05/01 11:33:08;;;;;;;11.30;10.40;;;19.10;96.00;;;;;;5984419;23;20497;-77
2022/05/01 11:36:04;;;;;;;11.67;10.67;;;19.00;96.10;;;;;;6003167;23;20433;-78
2022/05/01 11:38:34;;;;;;;11.90;10.90;;;18.80;96.80;;;;;;5995033;23;20865;-78
2022/05/01 11:41:03;;;;;;;10.87;9.87;;;19.00;95.90;;;;;;5991262;23;20468;-78
2022/05/01 11:43:31;;;;;;;11.63;10.63;;;19.10;96.30;;;;;;5987225;23;20465;-77
2022/05/01 11:46:01;;;;;;;10.63;9.73;;;19.00;95.60;;;;;;5984719;23;20446;-78
2022/05/01 11:48:29;;;;;;;10.33;9.43;;;19.20;97.00;;;;;;5988726;23;20450;-77
2022/05/01 11:50:58;;;;;;;11.80;10.80;;;19.50;96.10;;;;;;6006178;23;20481;-78
2022/05/01 11:53:29;;;;;;;10.83;9.93;;;19.80;95.80;;;;;;5994824;23;20465;-78
2022/05/01 12:04:29;;;;;;;9.07;8.33;;;20.90;94.80;;;;;;5986248;23;20503;-78
2022/05/01 12:07:01;;;;;;;10.63;9.83;;;21.20;91.60;;;;;;6003681;23;20485;-78
2022/05/01 12:09:31;;;;;;;11.67;10.77;;;21.60;92.80;;;;;;6002521;23;20447;-79
2022/05/01 12:11:58;;;;;;;9.93;9.17;;;21.90;91.50;;;;;;5992615;23;20547;-78
2022/05/01 12:14:25;;;;;;;11.00;10.10;;;21.90;91.60;;;;;;5983396;23;20464;-78
2022/05/01 12:16:53;;;;;;;10.57;9.67;;;22.40;91.20;;;;;;5986235;23;20525;-78
2022/05/01 12:19:21;;;;;;;10.17;9.30;;;22.90;90.70;;;;;;5981545;23;20452;-79
2022/05/01 12:21:48;;;;;;;9.47;8.77;;;23.30;89.80;;;;;;5995694;23;20488;-78
2022/05/01 12:24:15;;;;;;;10.93;10.13;;;23.30;89.20;;;;;;6005086;23;20590;-78
2022/05/01 12:26:52;;;;;;;10.00;9.20;;;23.00;87.80;;;;;;5995524;23;20884;-78
2022/05/01 12:29:19;;;;;;;9.97;9.03;;;22.60;89.10;;;;;;5991195;23;20501;-78
2022/05/01 12:32:06;;;;;;;9.83;9.00;;;22.00;89.50;;;;;;6011098;23;20504;-81
2022/05/01 12:34:36;;;;;;;9.93;9.23;;;21.60;87.60;;;;;;5988959;23;20475;-78
2022/05/01 12:37:05;;;;;;;10.70;9.80;;;21.50;88.40;;;;;;5984265;23;21026;-79
2022/05/01 12:39:32;;;;;;;9.80;9.00;;;21.70;89.70;;;;;;5975336;23;20960;-79
2022/05/01 12:45:11;;;;;;;12.13;11.13;;;22.30;90.00;;;;;;5989158;23;20441;-78
2022/05/01 12:47:40;;;;;;;11.17;10.17;;;22.20;87.60;;;;;;5980431;23;20449;-78
2022/05/01 12:50:10;;;;;;;12.30;10.13;;;22.30;89.10;;;;;;5985512;23;20448;-78
2022/05/01 12:52:39;;;;;;;11.73;10.83;;;22.50;88.50;;;;;;5987453;23;20508;-78
2022/05/01 12:55:16;;;;;;;9.90;9.10;;;22.60;87.40;;;;;;5991261;23;20449;-79
2022/05/01 12:57:51;;;;;;;9.17;8.37;;;22.80;86.60;;;;;;5986837;23;20445;-78
2022/05/01 13:00:36;;;;;;;10.23;9.43;;;22.90;88.30;;;;;;5980480;23;20454;-78
2022/05/01 13:03:21;;;;;;;9.77;9.13;;;23.00;86.00;;;;;;5986039;23;21031;-78
2022/05/01 13:06:02;;;;;;;9.47;8.77;;;23.10;85.90;;;;;;5992355;23;20450;-79
2022/05/01 13:08:31;;;;;;;10.50;9.70;;;23.10;85.70;;;;;;5981485;23;20470;-78
2022/05/01 13:11:19;;;;;;;11.20;10.33;;;22.70;83.50;;;;;;5986542;23;20507;-77
2022/05/01 13:13:53;;;;;;;12.60;11.50;;;22.40;84.50;;;;;;5986651;23;20465;-78